createdAt,value
2022-09-20T00:02:05.442Z,25.80
2022-09-20T00:04:34.581Z,25.80
2022-09-20T00:07:03.080Z,25.80
2022-09-20T00:09:30.701Z,25.90
2022-09-20T00:11:58.407Z,25.90
2022-09-20T00:14:27.175Z,25.90
2022-09-20T00:16:54.823Z,25.90
2022-09-20T00:19:22.838Z,26.00
2022-09-20T00:21:50.622Z,26.00
2022-09-20T00:24:18.246Z,26.00
2022-09-20T00:26:46.722Z,26.10
2022-09-20T00:29:15.310Z,26.10
2022-09-20T00:31:43.312Z,26.10
2022-09-20T00:34:23.632Z,26.10
2022-09-20T00:36:52.324Z,26.10
2022-09-20T00:39:19.971Z,26.10
2022-09-20T00:41:47.713Z,26.20
2022-09-20T00:44:27.570Z,26.20
2022-09-20T00:46:55.218Z,26.30
2022-09-20T00:49:29.759Z,26.30
2022-09-20T00:52:00.950Z,26.30
2022-09-20T00:54:32.242Z,26.30
2022-09-20T00:57:00.804Z,26.40
2022-09-20T00:59:33.029Z,26.40
2022-09-20T01:02:03.482Z,26.40
2022-09-20T01:04:31.307Z,26.40
2022-09-20T01:07:01.186Z,26.50
2022-09-20T01:09:29.706Z,26.50
2022-09-20T01:11:58.788Z,26.50
2022-09-20T01:14:26.926Z,26.50
2022-09-20T01:16:57.977Z,26.50
2022-09-20T01:19:46.190Z,26.50
2022-09-20T01:22:26.917Z,26.60
2022-09-20T01:25:06.673Z,26.60
2022-09-20T01:27:54.852Z,26.70
2022-09-20T01:30:24.741Z,26.80
2022-09-20T01:33:05.524Z,26.80
2022-09-20T01:35:34.749Z,26.80
2022-09-20T01:38:09.011Z,26.90
2022-09-20T01:40:45.288Z,26.90
2022-09-20T01:43:26.197Z,27.00
2022-09-20T01:45:54.093Z,27.10
2022-09-20T01:48:38.053Z,27.20
2022-09-20T01:51:25.366Z,27.20
2022-09-20T01:54:05.368Z,27.20
2022-09-20T01:56:52.589Z,27.30
2022-09-20T01:59:35.857Z,27.30
2022-09-20T02:02:15.802Z,27.40
2022-09-20T02:05:03.136Z,27.50
2022-09-20T02:07:51.431Z,27.50
2022-09-20T02:10:38.377Z,27.60
2022-09-20T02:13:24.048Z,27.60
2022-09-20T02:16:12.117Z,27.60
2022-09-20T02:18:52.041Z,27.60
2022-09-20T02:21:32.047Z,27.50
2022-09-20T02:24:13.193Z,27.70
2022-09-20T02:26:57.002Z,27.70
2022-09-20T02:29:44.774Z,27.70
2022-09-20T02:32:16.493Z,27.70
2022-09-20T02:34:56.064Z,27.70
2022-09-20T02:37:43.368Z,27.80
2022-09-20T02:40:30.766Z,27.90
2022-09-20T02:43:19.018Z,27.90
2022-09-20T02:45:58.974Z,28.00
2022-09-20T02:48:36.034Z,28.00
2022-09-20T02:51:13.281Z,28.10
2022-09-20T02:53:49.459Z,28.10
2022-09-20T02:56:36.871Z,28.10
2022-09-20T02:59:20.629Z,28.20
2022-09-20T03:02:00.590Z,28.20
2022-09-20T03:04:47.848Z,28.30
2022-09-20T03:07:26.989Z,28.30
2022-09-20T03:10:07.591Z,28.40
2022-09-20T03:12:47.442Z,28.40
2022-09-20T03:15:20.993Z,28.50
2022-09-20T03:18:05.442Z,28.70
2022-09-20T03:20:52.689Z,28.70
2022-09-20T03:23:41.598Z,28.90
2022-09-20T03:26:22.018Z,29.10
2022-09-20T03:28:55.938Z,29.20
2022-09-20T03:31:36.812Z,29.30
2022-09-20T03:34:17.526Z,29.40
2022-09-20T03:36:56.292Z,29.40
2022-09-20T03:39:36.198Z,29.50
2022-09-20T03:42:21.240Z,29.50
2022-09-20T03:45:09.473Z,29.60
2022-09-20T03:47:49.579Z,29.60
2022-09-20T03:50:36.990Z,29.60
2022-09-20T03:53:17.443Z,29.60
2022-09-20T03:55:59.961Z,29.70
2022-09-20T03:58:50.902Z,29.90
2022-09-20T04:01:31.610Z,30.00
2022-09-20T04:04:18.877Z,30.00
2022-09-20T04:07:00.072Z,30.00
2022-09-20T04:09:40.317Z,30.00
2022-09-20T04:12:21.035Z,30.00
2022-09-20T04:15:04.096Z,30.00
2022-09-20T04:17:44.231Z,30.00
2022-09-20T04:20:21.754Z,30.10
2022-09-20T04:22:52.720Z,30.10
2022-09-20T04:25:24.200Z,30.10
2022-09-20T04:27:55.658Z,30.20
2022-09-20T04:30:30.062Z,30.20
2022-09-20T04:33:11.128Z,30.30
2022-09-20T04:36:04.128Z,30.40
2022-09-20T04:38:32.045Z,30.40
2022-09-20T04:41:21.032Z,30.50
2022-09-20T04:44:03.623Z,30.50
2022-09-20T04:46:55.937Z,30.60
2022-09-20T04:49:44.276Z,30.60
2022-09-20T04:52:24.187Z,30.70
2022-09-20T04:55:13.474Z,30.70
2022-09-20T04:57:55.048Z,30.80
2022-09-20T05:00:24.908Z,30.80
2022-09-20T05:03:11.546Z,30.80
2022-09-20T05:05:51.742Z,30.80
2022-09-20T05:08:42.426Z,30.80
2022-09-20T05:11:30.984Z,30.80
2022-09-20T05:14:24.255Z,30.90
2022-09-20T05:17:06.634Z,30.90
2022-09-20T05:19:53.731Z,30.90
2022-09-20T05:22:35.124Z,30.90
2022-09-20T05:25:13.578Z,31.00
2022-09-20T05:27:50.636Z,30.90
2022-09-20T05:30:31.690Z,31.00
2022-09-20T05:33:21.743Z,31.00
2022-09-20T05:36:02.683Z,31.00
2022-09-20T05:38:35.353Z,31.00
2022-09-20T05:41:24.473Z,31.10
2022-09-20T05:43:59.994Z,31.20
2022-09-20T05:46:36.086Z,31.20
2022-09-20T05:49:21.781Z,31.30
2022-09-20T05:52:01.652Z,31.30
2022-09-20T05:54:42.486Z,31.30
2022-09-20T05:57:17.156Z,31.30
2022-09-20T06:00:05.683Z,31.30
2022-09-20T06:02:54.499Z,31.30
2022-09-20T06:05:34.187Z,31.30
2022-09-20T06:08:13.513Z,31.30
2022-09-20T06:10:48.082Z,31.30
2022-09-20T06:13:35.645Z,31.20
2022-09-20T06:16:08.824Z,31.20
2022-09-20T06:18:56.089Z,31.20
2022-09-20T06:21:34.645Z,31.20
2022-09-20T06:24:03.528Z,31.30
2022-09-20T06:26:37.959Z,31.30
2022-09-20T06:29:08.038Z,31.30
2022-09-20T06:31:35.675Z,31.30
2022-09-20T06:34:08.869Z,31.40
2022-09-20T06:36:52.924Z,31.40
2022-09-20T06:39:45.302Z,31.50
2022-09-20T06:42:13.052Z,31.60
2022-09-20T06:44:44.434Z,31.70
2022-09-20T06:47:13.751Z,31.70
2022-09-20T06:49:46.992Z,31.70
2022-09-20T06:52:15.854Z,31.60
2022-09-20T06:54:46.107Z,31.60
2022-09-20T06:57:17.304Z,31.50
2022-09-20T06:59:46.836Z,31.50
2022-09-20T07:02:15.447Z,31.50
2022-09-20T07:04:44.933Z,31.40
2022-09-20T07:07:16.180Z,31.30
2022-09-20T07:09:44.781Z,31.30
2022-09-20T07:12:12.851Z,31.20
2022-09-20T07:14:40.628Z,31.30
2022-09-20T07:17:08.787Z,31.20
2022-09-20T07:19:38.024Z,31.20
2022-09-20T07:22:06.670Z,31.20
2022-09-20T07:24:34.252Z,31.20
2022-09-20T07:27:03.194Z,31.20
2022-09-20T07:29:31.810Z,31.10
2022-09-20T07:31:59.629Z,31.10
2022-09-20T07:34:27.586Z,31.00
2022-09-20T07:36:58.590Z,30.90
2022-09-20T07:39:26.932Z,30.90
2022-09-20T07:41:55.519Z,30.80
2022-09-20T07:44:28.411Z,30.80
2022-09-20T07:46:58.318Z,30.70
2022-09-20T07:49:26.627Z,30.70
2022-09-20T07:51:54.992Z,30.70
2022-09-20T07:54:22.715Z,30.60
2022-09-20T07:56:50.716Z,30.60
2022-09-20T07:59:18.856Z,30.60
2022-09-20T08:01:47.223Z,30.60
2022-09-20T08:04:15.036Z,30.60
2022-09-20T08:06:44.129Z,30.60
2022-09-20T08:09:12.524Z,30.60
2022-09-20T08:11:41.015Z,30.50
2022-09-20T08:14:09.444Z,30.40
2022-09-20T08:16:42.698Z,30.30
2022-09-20T08:19:14.519Z,30.20
2022-09-20T08:21:45.628Z,30.10
2022-09-20T08:24:13.331Z,30.00
2022-09-20T08:26:40.995Z,29.90
2022-09-20T08:29:09.676Z,29.90
2022-09-20T08:31:39.541Z,29.90
2022-09-20T08:34:09.301Z,29.80
2022-09-20T08:36:39.498Z,29.80
2022-09-20T08:42:03.166Z,29.80
2022-09-20T08:44:36.370Z,29.80
2022-09-20T08:47:18.714Z,29.70
2022-09-20T08:49:46.654Z,29.80
2022-09-20T08:52:19.498Z,29.70
2022-09-20T08:54:47.936Z,29.70
2022-09-20T08:57:21.904Z,29.70
2022-09-20T08:59:50.788Z,29.70
2022-09-20T09:02:20.721Z,29.70
2022-09-20T09:04:49.792Z,29.70
2022-09-20T09:07:21.545Z,29.70
2022-09-20T09:09:53.110Z,29.70
2022-09-20T09:12:30.245Z,29.70
2022-09-20T09:15:00.339Z,29.70
2022-09-20T09:17:29.414Z,29.80
2022-09-20T09:19:59.929Z,29.80
2022-09-20T09:22:38.104Z,29.70
2022-09-20T09:25:25.549Z,29.70
2022-09-20T09:28:04.565Z,29.80
2022-09-20T09:30:33.830Z,29.80
2022-09-20T09:33:13.707Z,29.80
2022-09-20T09:35:42.573Z,29.80
2022-09-20T09:38:18.890Z,29.80
2022-09-20T09:40:52.041Z,29.80
2022-09-20T09:43:24.681Z,29.80
2022-09-20T09:45:52.378Z,29.80
2022-09-20T09:48:23.186Z,29.80
2022-09-20T09:50:51.060Z,29.80
2022-09-20T09:53:25.118Z,29.80
2022-09-20T09:56:14.256Z,29.80
2022-09-20T09:59:01.751Z,29.80
2022-09-20T10:01:41.999Z,29.90
2022-09-20T10:04:16.642Z,29.90
2022-09-20T10:06:56.533Z,29.90
2022-09-20T10:09:38.399Z,29.90
2022-09-20T10:12:20.986Z,29.90
2022-09-20T10:15:04.715Z,29.90
2022-09-20T10:17:37.085Z,29.90
2022-09-20T10:20:17.846Z,29.90
2022-09-20T10:23:24.168Z,29.90
2022-09-20T10:25:59.336Z,29.90
2022-09-20T10:28:49.485Z,29.90
2022-09-20T10:31:27.341Z,29.80
2022-09-20T10:34:08.167Z,29.80
2022-09-20T10:36:44.031Z,29.70
2022-09-20T10:39:18.314Z,29.70
2022-09-20T10:42:11.273Z,29.70
2022-09-20T10:44:59.329Z,29.70
2022-09-20T10:47:40.730Z,29.70
2022-09-20T10:50:18.889Z,29.60
2022-09-20T10:53:01.513Z,29.50
2022-09-20T10:55:43.576Z,29.50
2022-09-20T10:58:24.964Z,29.50
2022-09-20T11:01:09.693Z,29.40
2022-09-20T11:03:55.297Z,29.40
2022-09-20T11:06:41.163Z,29.30
2022-09-20T11:09:14.143Z,29.30
2022-09-20T11:11:47.776Z,29.20
2022-09-20T11:14:30.443Z,29.20
2022-09-20T11:17:17.729Z,29.10
2022-09-20T11:19:54.083Z,29.00
2022-09-20T11:22:24.150Z,29.00
2022-09-20T11:24:54.240Z,29.00
2022-09-20T11:27:33.353Z,28.90
2022-09-20T11:30:04.160Z,28.80
2022-09-20T11:32:36.980Z,28.80
2022-09-20T11:35:19.848Z,28.80
2022-09-20T11:37:50.853Z,28.80
2022-09-20T11:40:39.186Z,28.70
2022-09-20T11:43:08.485Z,28.70
2022-09-20T11:45:38.464Z,28.70
2022-09-20T11:48:20.962Z,28.70
2022-09-20T11:51:03.605Z,28.70
2022-09-20T11:53:50.841Z,28.60
2022-09-20T11:56:23.007Z,28.60
2022-09-20T11:58:56.363Z,28.50
2022-09-20T12:01:32.931Z,28.50
2022-09-20T12:04:32.512Z,28.50
2022-09-20T12:07:08.939Z,28.50
2022-09-20T12:09:42.119Z,28.40
2022-09-20T12:12:20.466Z,28.40
2022-09-20T12:14:59.820Z,28.40
2022-09-20T12:17:40.779Z,28.30
2022-09-20T12:20:22.207Z,28.30
2022-09-20T12:22:49.824Z,28.30
2022-09-20T12:25:36.020Z,28.30
2022-09-20T12:28:04.176Z,28.20
2022-09-20T12:30:34.220Z,28.20
2022-09-20T12:33:02.601Z,28.10
2022-09-20T12:35:49.806Z,28.10
2022-09-20T12:38:37.229Z,28.10
2022-09-20T12:41:15.263Z,28.10
2022-09-20T12:43:55.201Z,28.00
2022-09-20T12:46:26.011Z,28.00
2022-09-20T12:49:10.775Z,28.00
2022-09-20T12:51:51.784Z,28.00
2022-09-20T12:54:20.360Z,27.90
2022-09-20T12:56:48.873Z,27.90
2022-09-20T12:59:23.272Z,27.90
2022-09-20T13:01:52.334Z,27.90
2022-09-20T13:04:33.992Z,27.90
2022-09-20T13:07:14.436Z,27.80
2022-09-20T13:09:42.135Z,27.80
2022-09-20T13:12:10.887Z,27.70
2022-09-20T13:14:39.880Z,27.70
2022-09-20T13:17:15.884Z,27.70
2022-09-20T13:19:45.106Z,27.60
2022-09-20T13:22:21.186Z,27.60
2022-09-20T13:24:49.651Z,27.60
2022-09-20T13:27:26.323Z,27.50
2022-09-20T13:29:54.144Z,27.50
2022-09-20T13:32:24.396Z,27.50
2022-09-20T13:35:04.267Z,27.40
2022-09-20T13:37:32.694Z,27.40
2022-09-20T13:40:00.443Z,27.40
2022-09-20T13:42:31.757Z,27.30
2022-09-20T13:44:59.545Z,27.30
2022-09-20T13:47:29.457Z,27.30
2022-09-20T13:50:02.321Z,27.20
2022-09-20T13:52:32.440Z,27.20
2022-09-20T13:55:01.709Z,27.20
2022-09-20T13:57:31.205Z,27.10
2022-09-20T14:00:00.198Z,27.10
2022-09-20T14:02:31.551Z,27.10
2022-09-20T14:05:04.266Z,27.10
2022-09-20T14:07:33.268Z,27.10
2022-09-20T14:10:01.159Z,27.10
2022-09-20T14:12:29.090Z,27.20
2022-09-20T14:14:56.965Z,27.20
2022-09-20T14:17:25.372Z,27.20
2022-09-20T14:19:58.010Z,27.20
2022-09-20T14:22:29.262Z,27.20
2022-09-20T14:24:59.923Z,27.20
2022-09-20T14:27:28.694Z,27.20
2022-09-20T14:29:57.618Z,27.20
2022-09-20T14:32:35.107Z,27.20
2022-09-20T14:35:07.459Z,27.20
2022-09-20T14:37:43.630Z,27.20
2022-09-20T14:40:23.560Z,27.20
2022-09-20T14:42:53.180Z,27.20
2022-09-20T14:45:34.646Z,27.20
2022-09-20T14:48:09.620Z,27.20
2022-09-20T14:50:41.142Z,27.20
2022-09-20T14:53:27.254Z,27.20
2022-09-20T14:55:56.552Z,27.10
2022-09-20T14:58:26.453Z,27.10
2022-09-20T15:01:09.057Z,27.10
2022-09-20T15:03:43.011Z,27.10
2022-09-20T15:06:11.214Z,27.10
2022-09-20T15:08:44.041Z,27.10
2022-09-20T15:11:17.654Z,27.10
2022-09-20T15:13:46.157Z,27.00
2022-09-20T15:16:15.142Z,27.00
2022-09-20T15:18:43.894Z,27.00
2022-09-20T15:21:12.697Z,27.00
2022-09-20T15:23:40.701Z,27.00
2022-09-20T15:26:09.234Z,26.90
2022-09-20T15:28:37.184Z,26.90
2022-09-20T15:31:05.988Z,26.90
2022-09-20T15:33:33.936Z,26.90
2022-09-20T15:36:05.171Z,26.90
2022-09-20T15:38:32.964Z,26.80
2022-09-20T15:41:01.439Z,26.80
2022-09-20T15:43:31.557Z,26.80
2022-09-20T15:46:04.028Z,26.80
2022-09-20T15:48:31.748Z,26.80
2022-09-20T15:51:11.283Z,26.80
2022-09-20T15:53:45.452Z,26.80
2022-09-20T15:56:21.422Z,26.80
2022-09-20T15:58:50.698Z,26.80
2022-09-20T16:01:19.348Z,26.70
2022-09-20T16:03:47.415Z,26.70
2022-09-20T16:06:15.184Z,26.70
2022-09-20T16:08:43.630Z,26.70
2022-09-20T16:11:17.255Z,26.60
2022-09-20T16:13:47.511Z,26.60
2022-09-20T16:16:16.299Z,26.50
2022-09-20T16:18:57.100Z,26.50
2022-09-20T16:21:25.281Z,26.50
2022-09-20T16:23:55.339Z,26.40
2022-09-20T16:26:24.198Z,26.40
2022-09-20T16:28:52.707Z,26.40
2022-09-20T16:31:34.973Z,26.40
2022-09-20T16:34:22.489Z,26.30
2022-09-20T16:36:55.982Z,26.30
2022-09-20T16:39:30.830Z,26.30
2022-09-20T16:42:03.869Z,26.30
2022-09-20T16:44:35.819Z,26.20
2022-09-20T16:47:07.442Z,26.20
2022-09-20T16:49:36.467Z,26.20
2022-09-20T16:52:09.455Z,26.20
2022-09-20T16:54:37.411Z,26.20
2022-09-20T16:57:06.397Z,26.10
2022-09-20T16:59:34.021Z,26.10
2022-09-20T17:02:02.585Z,26.10
2022-09-20T17:04:30.482Z,26.10
2022-09-20T17:06:58.105Z,26.10
2022-09-20T17:09:26.065Z,26.10
2022-09-20T17:11:54.091Z,26.10
2022-09-20T17:14:23.078Z,26.10
2022-09-20T17:16:50.869Z,26.00
2022-09-20T17:19:19.801Z,26.00
2022-09-20T17:21:52.616Z,26.00
2022-09-20T17:24:22.018Z,26.00
2022-09-20T17:26:50.657Z,26.00
2022-09-20T17:29:20.160Z,26.00
2022-09-20T17:31:54.142Z,26.00
2022-09-20T17:34:23.844Z,25.90
2022-09-20T17:36:51.567Z,25.90
2022-09-20T17:39:19.386Z,25.90
2022-09-20T17:41:48.108Z,25.90
2022-09-20T17:44:17.229Z,25.90
2022-09-20T17:46:45.879Z,25.90
2022-09-20T17:49:14.641Z,25.90
2022-09-20T17:51:44.210Z,25.90
2022-09-20T17:54:15.211Z,26.00
2022-09-20T17:56:43.863Z,25.90
2022-09-20T17:59:12.998Z,26.00
2022-09-20T18:01:41.874Z,26.00
2022-09-20T18:04:09.829Z,26.00
2022-09-20T18:06:39.484Z,25.90
2022-09-20T18:09:08.528Z,25.90
2022-09-20T18:11:37.432Z,25.90
2022-09-20T18:14:06.407Z,25.90
2022-09-20T18:16:36.283Z,26.00
2022-09-20T18:19:05.084Z,25.90
2022-09-20T18:21:34.723Z,25.90
2022-09-20T18:24:03.884Z,25.90
2022-09-20T18:26:33.508Z,25.90
2022-09-20T18:29:05.988Z,25.90
2022-09-20T18:31:38.975Z,25.90
2022-09-20T18:34:08.577Z,25.90
2022-09-20T18:36:39.443Z,25.90
2022-09-20T18:39:07.810Z,25.90
2022-09-20T18:41:36.597Z,25.90
2022-09-20T18:44:05.606Z,25.90
2022-09-20T18:46:35.093Z,26.00
2022-09-20T18:49:06.230Z,26.00
2022-09-20T18:51:39.045Z,26.00
2022-09-20T18:54:09.278Z,26.00
2022-09-20T18:56:37.864Z,26.10
2022-09-20T18:59:08.322Z,26.10
2022-09-20T19:01:48.353Z,26.10
2022-09-20T19:04:30.088Z,26.10
2022-09-20T19:07:12.257Z,26.10
2022-09-20T19:09:52.112Z,26.00
2022-09-20T19:12:39.730Z,26.00
2022-09-20T19:15:20.207Z,26.00
2022-09-20T19:18:07.598Z,26.00
2022-09-20T19:20:55.692Z,25.90
2022-09-20T19:23:35.969Z,25.90
2022-09-20T19:26:23.094Z,25.80
2022-09-20T19:28:52.721Z,25.80
2022-09-20T19:31:23.394Z,25.80
2022-09-20T19:33:54.765Z,25.80
2022-09-20T19:36:23.214Z,25.80
2022-09-20T19:39:02.586Z,25.70
2022-09-20T19:41:42.492Z,25.80
2022-09-20T19:44:29.720Z,25.70
2022-09-20T19:47:13.182Z,25.70
2022-09-20T19:49:54.678Z,25.70
2022-09-20T19:52:24.290Z,25.70
2022-09-20T19:54:52.414Z,25.70
2022-09-20T19:57:21.647Z,25.70
2022-09-20T19:59:49.680Z,25.70
2022-09-20T20:02:18.804Z,25.80
2022-09-20T20:04:46.675Z,25.70
2022-09-20T20:07:21.224Z,25.70
2022-09-20T20:09:56.793Z,25.70
2022-09-20T20:12:40.336Z,25.70
2022-09-20T20:15:20.448Z,25.70
2022-09-20T20:17:53.766Z,25.70
2022-09-20T20:20:34.259Z,25.60
2022-09-20T20:23:21.563Z,25.60
2022-09-20T20:26:01.356Z,25.60
2022-09-20T20:28:30.232Z,25.60
2022-09-20T20:31:00.203Z,25.60
2022-09-20T20:33:28.967Z,25.60
2022-09-20T20:35:58.174Z,25.60
2022-09-20T20:38:26.822Z,25.60
2022-09-20T20:41:05.731Z,25.60
2022-09-20T20:43:35.038Z,25.60
2022-09-20T20:46:04.793Z,25.60
2022-09-20T20:48:32.543Z,25.60
2022-09-20T20:51:01.084Z,25.60
2022-09-20T20:53:36.498Z,25.60
2022-09-20T20:56:06.022Z,25.60
2022-09-20T20:58:34.352Z,25.50
2022-09-20T21:01:09.419Z,25.50
2022-09-20T21:03:37.062Z,25.60
2022-09-20T21:06:04.946Z,25.60
2022-09-20T21:08:35.241Z,25.60
2022-09-20T21:11:04.950Z,25.60
2022-09-20T21:13:33.310Z,25.60
2022-09-20T21:16:21.831Z,25.60
2022-09-20T21:18:50.152Z,25.60
2022-09-20T21:21:28.019Z,25.50
2022-09-20T21:23:59.337Z,25.60
2022-09-20T21:26:30.188Z,25.50
2022-09-20T21:28:59.908Z,25.60
2022-09-20T21:31:29.114Z,25.60
2022-09-20T21:33:59.796Z,25.60
2022-09-20T21:36:31.646Z,25.60
2022-09-20T21:39:03.170Z,25.60
2022-09-20T21:41:32.213Z,25.60
2022-09-20T21:44:00.756Z,25.60
2022-09-20T21:46:30.154Z,25.60
2022-09-20T21:48:58.453Z,25.60
2022-09-20T21:51:27.978Z,25.60
2022-09-20T21:54:00.621Z,25.50
2022-09-20T21:56:29.562Z,25.50
2022-09-20T21:58:57.596Z,25.50
2022-09-20T22:01:26.559Z,25.50
2022-09-20T22:04:00.564Z,25.50
2022-09-20T22:06:30.660Z,25.50
2022-09-20T22:08:59.221Z,25.50
2022-09-20T22:11:28.855Z,25.50
2022-09-20T22:13:57.629Z,25.50
2022-09-20T22:16:27.325Z,25.50
2022-09-20T22:18:56.342Z,25.50
2022-09-20T22:21:25.095Z,25.40
2022-09-20T22:23:54.483Z,25.40
2022-09-20T22:26:23.697Z,25.40
2022-09-20T22:28:52.852Z,25.40
2022-09-20T22:31:22.921Z,25.40
2022-09-20T22:33:52.212Z,25.40
2022-09-20T22:36:22.537Z,25.40
2022-09-20T22:38:50.316Z,25.40
2022-09-20T22:41:19.910Z,25.40
2022-09-20T22:43:48.127Z,25.40
2022-09-20T22:46:18.559Z,25.40
2022-09-20T22:48:47.257Z,25.40
2022-09-20T22:51:17.018Z,25.40
2022-09-20T22:53:46.246Z,25.40
2022-09-20T22:56:18.855Z,25.50
2022-09-20T22:58:48.040Z,25.50
2022-09-20T23:01:16.910Z,25.50
2022-09-20T23:03:45.929Z,25.50
2022-09-20T23:06:18.957Z,25.50
2022-09-20T23:08:49.565Z,25.50
2022-09-20T23:11:18.621Z,25.60
2022-09-20T23:13:46.774Z,25.60
2022-09-20T23:16:15.955Z,25.60
2022-09-20T23:18:43.668Z,25.60
2022-09-20T23:21:11.332Z,25.60
2022-09-20T23:23:41.946Z,25.60
2022-09-20T23:26:13.621Z,25.60
2022-09-20T23:28:43.030Z,25.60
2022-09-20T23:31:12.291Z,25.60
2022-09-20T23:33:43.607Z,25.60
2022-09-20T23:36:14.488Z,25.60
2022-09-20T23:38:42.186Z,25.70
2022-09-20T23:41:11.266Z,25.70
2022-09-20T23:43:40.423Z,25.70
2022-09-20T23:46:09.382Z,25.70
2022-09-20T23:48:38.541Z,25.70
2022-09-20T23:51:06.473Z,25.70
2022-09-20T23:53:34.567Z,25.70
2022-09-20T23:56:03.221Z,25.70
2022-09-20T23:58:30.865Z,25.70
